Time;durP1;ratioP1;P1;durP2;ratioP2;P2;SDS_P1;SDS_P2;PMS_P1;PMS_P2;Temp;Humidity;BMP_temperature;BMP_pressure;BME280_temperature;BME280_humidity;BME280_pressure;Samples;Min_cycle;Max_cycle;Signal;HPM_P1;HPM_P2
2022/04/20 00:00:00;;;;;;;5.95;2.95;;;8.80;71.00;;;;;;5050386;28;20017;-74
2022/04/20 00:02:29;;;;;;;7.05;3.63;;;8.70;71.40;;;;;;5049483;28;20029;-74
2022/04/20 00:04:57;;;;;;;6.70;3.55;;;8.80;71.70;;;;;;5044109;28;20481;-74
2022/04/20 00:07:23;;;;;;;6.13;2.92;;;8.70;72.40;;;;;;5041617;28;20021;-73
2022/04/20 00:09:52;;;;;;;5.22;3.03;;;8.60;73.00;;;;;;5046230;28;20044;-73
2022/04/20 00:12:23;;;;;;;7.50;3.47;;;8.60;73.50;;;;;;5042562;28;20392;-73
2022/04/20 00:14:58;;;;;;;7.82;3.58;;;8.50;73.60;;;;;;5040040;28;21081;-73
2022/04/20 00:17:24;;;;;;;8.65;3.80;;;8.50;74.00;;;;;;5044727;28;20025;-74
2022/04/20 00:19:52;;;;;;;6.35;3.83;;;8.40;75.00;;;;;;5042856;28;20713;-73
2022/04/20 00:22:18;;;;;;;8.77;3.65;;;8.40;74.90;;;;;;5063626;28;20025;-73
2022/04/20 00:24:59;;;;;;;6.97;3.72;;;8.40;75.30;;;;;;5046484;28;20025;-73
2022/04/20 00:27:27;;;;;;;5.93;3.40;;;8.30;75.60;;;;;;5037140;28;20508;-73
2022/04/20 00:29:53;;;;;;;8.45;4.60;;;8.30;75.80;;;;;;5040597;28;20084;-73
2022/04/20 00:32:24;;;;;;;5.60;3.47;;;8.30;75.80;;;;;;5040851;28;20029;-73
2022/04/20 00:34:50;;;;;;;5.13;3.78;;;8.30;75.20;;;;;;5041637;28;20481;-72
2022/04/20 00:37:18;;;;;;;5.13;3.45;;;8.30;75.90;;;;;;5042546;28;20058;-71
2022/04/20 00:39:47;;;;;;;8.05;3.50;;;8.20;74.40;;;;;;5043231;28;20028;-72
2022/04/20 00:42:13;;;;;;;6.53;4.38;;;8.20;75.10;;;;;;5041236;28;20051;-73
2022/04/20 00:44:42;;;;;;;7.82;4.13;;;8.20;75.10;;;;;;5042458;28;20530;-72
2022/04/20 00:47:10;;;;;;;6.13;3.33;;;8.20;74.30;;;;;;5040622;28;20026;-73
2022/04/20 00:49:37;;;;;;;5.75;3.78;;;8.20;74.60;;;;;;5043785;28;20029;-74
2022/04/20 00:52:09;;;;;;;5.45;3.50;;;8.10;74.80;;;;;;5040653;28;20029;-73
2022/04/20 00:54:34;;;;;;;5.88;3.88;;;8.10;75.30;;;;;;5041928;28;20132;-72
2022/04/20 00:57:06;;;;;;;4.97;3.10;;;8.10;75.30;;;;;;5065023;23;20532;-70
2022/04/20 00:59:34;;;;;;;7.93;3.78;;;8.00;75.50;;;;;;5047381;28;20028;-71
2022/04/20 01:02:04;;;;;;;4.95;3.40;;;7.90;75.80;;;;;;5044101;28;20036;-70
2022/04/20 01:04:30;;;;;;;4.93;3.30;;;7.90;75.70;;;;;;5044103;28;20025;-71
2022/04/20 01:07:19;;;;;;;5.88;3.47;;;7.80;75.60;;;;;;5051996;28;20497;-71
2022/04/20 01:09:45;;;;;;;5.30;3.17;;;7.90;75.40;;;;;;5041179;28;20052;-71
2022/04/20 01:12:13;;;;;;;5.57;3.17;;;7.80;75.40;;;;;;5042865;28;20028;-71
2022/04/20 01:14:40;;;;;;;5.78;3.63;;;7.80;75.40;;;;;;5038684;28;20116;-71
2022/04/20 01:17:06;;;;;;;4.70;3.15;;;7.80;75.20;;;;;;5043446;28;20036;-71
2022/04/20 01:19:39;;;;;;;4.72;2.95;;;7.70;74.70;;;;;;5044190;28;20025;-71
2022/04/20 01:22:06;;;;;;;5.50;2.50;;;7.70;74.20;;;;;;5049773;28;20028;-71
2022/04/20 01:24:32;;;;;;;4.65;2.60;;;7.70;73.90;;;;;;5045678;28;20014;-71
2022/04/20 01:27:02;;;;;;;4.65;3.00;;;7.60;73.80;;;;;;5044753;28;20036;-72
2022/04/20 01:29:32;;;;;;;6.97;2.83;;;7.70;73.90;;;;;;5043959;28;20464;-71
2022/04/20 01:32:01;;;;;;;4.82;2.40;;;7.60;73.30;;;;;;5043422;28;20041;-70
2022/04/20 01:34:26;;;;;;;4.82;2.80;;;7.60;73.40;;;;;;5047450;28;20052;-71
2022/04/20 01:36:52;;;;;;;5.72;2.83;;;7.60;73.80;;;;;;5043808;28;20470;-71
2022/04/20 01:39:18;;;;;;;6.40;3.40;;;7.50;74.00;;;;;;5037797;28;20034;-71
2022/04/20 01:41:44;;;;;;;4.93;2.83;;;7.50;73.90;;;;;;5045843;28;20417;-71
2022/04/20 01:44:10;;;;;;;7.53;4.65;;;7.50;74.20;;;;;;5045039;28;20021;-71
2022/04/20 01:46:39;;;;;;;6.38;3.58;;;7.40;74.00;;;;;;5064044;28;20044;-70
2022/04/20 01:49:07;;;;;;;4.93;3.08;;;7.40;73.90;;;;;;5038606;28;20096;-71
2022/04/20 01:51:51;;;;;;;6.78;2.72;;;7.40;74.20;;;;;;5041466;28;20430;-71
2022/04/20 01:54:19;;;;;;;5.47;2.70;;;7.40;74.20;;;;;;5037033;28;20108;-71
2022/04/20 01:56:46;;;;;;;5.13;2.45;;;7.40;73.90;;;;;;5043767;28;20083;-70
2022/04/20 01:59:12;;;;;;;5.63;2.92;;;7.30;73.20;;;;;;5039769;28;20140;-71
2022/04/20 02:04:28;;;;;;;3.67;2.85;;;7.30;73.60;;;;;;5043295;28;20036;-71
2022/04/20 02:06:55;;;;;;;4.35;2.63;;;7.30;73.80;;;;;;5039649;28;20041;-71
2022/04/20 02:09:21;;;;;;;5.72;3.05;;;7.20;74.00;;;;;;5047520;28;20036;-71
2022/04/20 02:11:47;;;;;;;4.65;2.90;;;7.20;73.90;;;;;;5041894;28;20103;-72
2022/04/20 02:14:12;;;;;;;5.93;3.08;;;7.20;74.10;;;;;;5040860;28;20045;-72
2022/04/20 02:16:38;;;;;;;4.70;2.70;;;7.20;74.10;;;;;;5045907;28;20033;-71
2022/04/20 02:19:10;;;;;;;4.85;2.75;;;7.20;74.20;;;;;;5042181;28;20029;-70
2022/04/20 02:21:42;;;;;;;4.80;2.42;;;7.10;74.00;;;;;;5040709;28;20052;-72
2022/04/20 02:24:16;;;;;;;3.78;2.63;;;7.10;73.80;;;;;;5046479;28;20048;-72
2022/04/20 02:26:42;;;;;;;3.00;2.33;;;7.10;73.60;;;;;;5046868;28;20029;-71
2022/04/20 02:29:08;;;;;;;4.25;2.55;;;7.10;73.60;;;;;;5040679;28;20052;-71
2022/04/20 02:31:34;;;;;;;4.55;2.60;;;7.00;73.10;;;;;;5052991;28;20513;-72
2022/04/20 02:34:05;;;;;;;2.97;2.03;;;7.00;72.40;;;;;;5039716;28;20029;-71
2022/04/20 02:36:32;;;;;;;3.53;2.45;;;7.00;71.90;;;;;;5043416;28;20064;-71
2022/04/20 02:38:58;;;;;;;3.75;2.20;;;7.00;72.00;;;;;;5047059;28;20043;-71
2022/04/20 02:41:24;;;;;;;6.05;2.78;;;6.90;72.00;;;;;;5045134;28;20063;-71
2022/04/20 02:43:56;;;;;;;4.13;2.50;;;7.00;71.90;;;;;;5042431;28;20052;-71
2022/04/20 02:46:25;;;;;;;4.00;2.03;;;7.00;71.20;;;;;;5046668;28;20025;-71
2022/04/20 02:48:54;;;;;;;4.15;1.70;;;6.90;70.90;;;;;;5043539;28;20029;-71
2022/04/20 02:51:22;;;;;;;3.38;2.00;;;6.90;70.30;;;;;;5042725;28;20025;-72
2022/04/20 02:53:48;;;;;;;3.97;2.45;;;7.00;68.80;;;;;;5047761;28;20035;-71
2022/04/20 02:56:23;;;;;;;3.28;1.95;;;7.00;69.20;;;;;;5039237;28;20140;-71
2022/04/20 02:59:00;;;;;;;3.35;2.17;;;7.00;70.30;;;;;;5039477;28;20121;-72
2022/04/20 03:01:28;;;;;;;3.50;1.95;;;6.90;70.80;;;;;;5038437;28;20025;-71
2022/04/20 03:03:59;;;;;;;3.15;2.00;;;6.80;70.40;;;;;;5042963;28;20546;-72
2022/04/20 03:06:27;;;;;;;6.18;2.08;;;6.80;70.30;;;;;;5036035;28;20045;-71
2022/04/20 03:08:59;;;;;;;3.20;1.90;;;6.70;70.50;;;;;;5037300;28;20073;-72
2022/04/20 03:11:27;;;;;;;4.72;1.95;;;6.70;70.80;;;;;;5033071;28;20048;-72
2022/04/20 03:13:56;;;;;;;3.33;2.30;;;6.60;72.10;;;;;;5037613;28;20039;-72
2022/04/20 03:16:25;;;;;;;3.47;2.42;;;6.60;73.20;;;;;;5042880;28;20037;-72
2022/04/20 03:18:51;;;;;;;5.32;2.53;;;6.50;73.80;;;;;;5043997;28;20041;-71
2022/04/20 03:21:16;;;;;;;4.05;2.38;;;6.50;74.30;;;;;;5039609;28;20049;-71
2022/04/20 03:23:42;;;;;;;3.17;2.47;;;6.50;75.00;;;;;;5039811;28;20032;-71
2022/04/20 03:26:11;;;;;;;5.00;2.38;;;6.50;75.50;;;;;;5043145;28;20159;-71
2022/04/20 03:28:40;;;;;;;7.50;3.00;;;6.40;75.60;;;;;;5045099;28;20155;-72
2022/04/20 03:31:06;;;;;;;3.75;2.42;;;6.40;76.20;;;;;;5041483;28;20108;-72
2022/04/20 03:33:35;;;;;;;4.22;2.38;;;6.40;76.40;;;;;;5045356;28;20135;-72
2022/04/20 03:36:06;;;;;;;3.40;1.95;;;6.30;76.50;;;;;;5040306;28;20029;-70
2022/04/20 03:38:33;;;;;;;6.45;3.20;;;6.30;76.90;;;;;;5047415;28;20311;-70
2022/04/20 03:40:59;;;;;;;5.07;2.60;;;6.20;77.00;;;;;;5047663;28;20025;-69
2022/04/20 03:43:28;;;;;;;4.72;2.40;;;6.10;77.50;;;;;;5046870;28;20021;-70
2022/04/20 03:45:53;;;;;;;4.20;2.60;;;6.10;77.70;;;;;;5045297;28;20079;-70
2022/04/20 03:48:22;;;;;;;3.10;2.28;;;6.00;77.80;;;;;;5041852;28;20029;-70
2022/04/20 03:50:51;;;;;;;5.80;3.22;;;5.90;78.40;;;;;;5062377;28;20104;-71
2022/04/20 03:53:20;;;;;;;3.58;2.17;;;5.90;78.60;;;;;;5046302;28;20083;-71
2022/04/20 03:55:45;;;;;;;4.13;2.55;;;5.80;78.90;;;;;;5051120;28;20379;-72
2022/04/20 03:58:11;;;;;;;4.80;2.72;;;5.80;79.40;;;;;;5052278;28;20032;-71
2022/04/20 04:00:37;;;;;;;4.60;2.92;;;5.80;79.50;;;;;;5044523;28;20033;-71
2022/04/20 04:03:06;;;;;;;4.20;2.40;;;5.70;80.00;;;;;;5040190;28;20068;-71
2022/04/20 04:05:32;;;;;;;4.18;2.28;;;5.60;79.80;;;;;;5043799;28;20037;-71
2022/04/20 04:08:00;;;;;;;4.93;2.35;;;5.60;80.30;;;;;;5042881;28;20044;-70
2022/04/20 04:10:32;;;;;;;3.90;2.40;;;5.60;80.20;;;;;;5042438;28;20041;-70
2022/04/20 04:12:57;;;;;;;4.43;2.50;;;5.60;80.20;;;;;;5039343;28;20229;-71
2022/04/20 04:15:23;;;;;;;4.75;2.47;;;5.60;79.50;;;;;;5041119;28;20029;-71
2022/04/20 04:17:54;;;;;;;3.70;2.45;;;5.60;79.00;;;;;;5042519;28;20028;-71
2022/04/20 04:20:21;;;;;;;5.78;2.50;;;5.60;79.30;;;;;;5043172;28;20053;-71
2022/04/20 04:22:47;;;;;;;9.38;3.17;;;5.70;79.50;;;;;;5041602;28;20021;-71
2022/04/20 04:25:16;;;;;;;4.80;2.85;;;5.70;80.50;;;;;;5040168;28;20037;-71
2022/04/20 04:27:48;;;;;;;4.38;2.88;;;5.60;80.00;;;;;;5044118;28;20028;-71
2022/04/20 04:30:14;;;;;;;5.22;3.20;;;5.60;80.50;;;;;;5045968;28;20036;-70
2022/04/20 04:32:40;;;;;;;7.47;2.90;;;5.60;80.80;;;;;;5041954;28;20095;-70
2022/04/20 04:35:08;;;;;;;6.25;2.95;;;5.60;81.40;;;;;;5044999;28;20021;-71
2022/04/20 04:37:37;;;;;;;8.40;3.00;;;5.60;81.90;;;;;;5041452;28;20056;-70
2022/04/20 04:40:07;;;;;;;8.07;3.70;;;5.50;82.60;;;;;;5044291;28;20110;-70
2022/04/20 04:42:32;;;;;;;6.85;3.30;;;5.40;83.10;;;;;;5040104;28;20097;-70
2022/04/20 04:50:29;;;;;;;;;;;5.30;84.50;;;;;;5041590;28;20563;-70
2022/04/20 04:52:54;;;;;;;6.55;2.85;;;5.30;85.00;;;;;;5038545;28;19913;-69
2022/04/20 04:55:26;;;;;;;6.82;3.10;;;5.30;84.70;;;;;;5029936;28;20037;-70
2022/04/20 04:57:52;;;;;;;4.70;2.90;;;5.30;85.30;;;;;;5039917;28;20035;-70
2022/04/20 05:00:22;;;;;;;5.45;3.60;;;5.30;85.40;;;;;;5039332;28;20037;-70
2022/04/20 05:02:47;;;;;;;5.75;3.00;;;5.20;85.90;;;;;;5040021;28;20025;-70
2022/04/20 05:05:13;;;;;;;6.93;3.20;;;5.20;86.80;;;;;;5040208;28;20075;-70
2022/04/20 05:07:41;;;;;;;4.03;3.17;;;5.30;87.20;;;;;;5044407;28;20029;-71
2022/04/20 05:10:10;;;;;;;6.05;3.35;;;5.20;87.80;;;;;;5037978;28;20125;-70
2022/04/20 05:12:36;;;;;;;5.45;2.70;;;5.30;87.20;;;;;;5039346;28;20025;-70
2022/04/20 05:15:02;;;;;;;5.55;2.53;;;5.40;86.50;;;;;;5039843;28;20437;-70
2022/04/20 05:17:27;;;;;;;7.00;3.17;;;5.50;85.60;;;;;;5044013;28;20394;-70
2022/04/20 05:19:53;;;;;;;8.25;3.00;;;5.60;84.40;;;;;;5043963;28;20412;-70
2022/04/20 05:22:19;;;;;;;5.93;3.20;;;5.70;84.80;;;;;;5044752;28;20083;-70
2022/04/20 05:24:50;;;;;;;6.82;3.47;;;5.80;84.60;;;;;;5047220;28;20533;-70
2022/04/20 05:27:22;;;;;;;7.05;3.63;;;6.00;84.80;;;;;;5042056;28;20027;-70
2022/04/20 05:29:47;;;;;;;4.07;3.20;;;6.10;84.90;;;;;;5059811;28;20024;-70
2022/04/20 05:32:19;;;;;;;4.47;3.22;;;6.30;84.40;;;;;;5040443;28;20424;-70
2022/04/20 05:34:44;;;;;;;5.78;3.08;;;6.40;83.70;;;;;;5054648;28;20412;-71
2022/04/20 05:42:38;;;;;;;6.88;3.50;;;6.70;81.90;;;;;;5043144;28;20079;-71
2022/04/20 05:45:04;;;;;;;7.97;3.35;;;6.80;81.50;;;;;;5038360;28;20029;-70
2022/04/20 05:47:30;;;;;;;7.15;3.28;;;6.70;81.30;;;;;;5045697;28;20449;-71
2022/04/20 05:49:56;;;;;;;7.43;3.72;;;6.80;81.10;;;;;;5036160;28;20059;-69
2022/04/20 05:52:21;;;;;;;6.75;3.33;;;6.80;80.70;;;;;;5041442;28;20474;-70
2022/04/20 05:54:47;;;;;;;4.70;3.00;;;6.80;80.40;;;;;;5041348;28;20485;-72
2022/04/20 05:57:13;;;;;;;4.53;3.40;;;7.00;80.50;;;;;;5040432;28;20652;-70
2022/04/20 05:59:38;;;;;;;6.32;3.53;;;7.00;80.70;;;;;;5039505;28;20028;-71
2022/04/20 06:02:04;;;;;;;7.88;3.95;;;7.20;80.90;;;;;;5057521;28;20374;-70
2022/04/20 06:04:30;;;;;;;4.65;3.63;;;7.20;80.10;;;;;;5043738;28;20026;-70
2022/04/20 06:06:56;;;;;;;4.05;3.22;;;7.10;80.00;;;;;;5046755;28;20071;-71
2022/04/20 06:09:22;;;;;;;8.13;3.47;;;7.00;80.30;;;;;;5043506;28;20025;-71
2022/04/20 06:11:48;;;;;;;7.05;3.70;;;6.90;81.30;;;;;;5043300;28;20687;-71
2022/04/20 06:14:13;;;;;;;8.40;4.32;;;6.80;82.30;;;;;;5041670;28;20059;-71
2022/04/20 06:16:39;;;;;;;8.88;4.30;;;6.90;82.50;;;;;;5040583;28;20025;-73
2022/04/20 06:19:05;;;;;;;5.10;3.50;;;6.90;82.20;;;;;;5043128;28;20075;-70
2022/04/20 06:21:30;;;;;;;5.13;3.33;;;6.90;81.50;;;;;;5035782;28;20021;-71
2022/04/20 06:24:00;;;;;;;6.97;3.88;;;7.00;81.40;;;;;;5037285;28;20017;-71
2022/04/20 06:26:26;;;;;;;7.15;4.32;;;7.00;81.50;;;;;;5037531;28;20025;-69
2022/04/20 06:28:52;;;;;;;5.97;3.63;;;7.10;81.40;;;;;;5046497;28;20036;-71
2022/04/20 06:31:17;;;;;;;5.38;3.85;;;7.10;80.90;;;;;;5039653;28;20022;-71
2022/04/20 06:33:43;;;;;;;7.70;4.70;;;7.20;80.80;;;;;;5043853;28;20033;-71
2022/04/20 06:36:08;;;;;;;7.35;3.47;;;7.20;80.80;;;;;;5041383;28;20547;-70
2022/04/20 06:38:34;;;;;;;8.35;4.15;;;7.20;81.10;;;;;;5047615;28;20082;-71
2022/04/20 06:41:00;;;;;;;5.78;3.53;;;7.30;81.10;;;;;;5046346;28;20024;-70
2022/04/20 06:43:25;;;;;;;5.15;3.88;;;7.30;80.50;;;;;;5042319;28;20045;-71
2022/04/20 06:45:52;;;;;;;8.63;4.10;;;7.40;81.20;;;;;;5044841;28;20025;-71
2022/04/20 06:48:17;;;;;;;5.95;3.20;;;7.40;79.80;;;;;;5036157;28;20026;-71
2022/04/20 06:50:43;;;;;;;6.55;3.85;;;7.40;80.20;;;;;;5048285;28;20116;-71
2022/04/20 06:58:31;;;;;;;7.78;3.30;;;7.60;79.50;;;;;;5026744;28;20499;-77
2022/04/20 07:00:57;;;;;;;7.63;3.67;;;7.60;79.10;;;;;;5021535;28;20026;-77
2022/04/20 07:03:23;;;;;;;7.53;3.13;;;7.70;78.60;;;;;;5026925;28;20032;-76
2022/04/20 07:05:49;;;;;;;5.90;3.88;;;7.90;77.00;;;;;;5023463;28;20112;-77
2022/04/20 07:08:15;;;;;;;6.40;3.53;;;8.00;77.70;;;;;;5021354;28;20406;-76
2022/04/20 07:10:40;;;;;;;6.28;3.90;;;8.00;77.70;;;;;;5045148;28;20044;-76
2022/04/20 07:13:06;;;;;;;3.97;2.63;;;8.10;77.90;;;;;;5025528;28;20044;-76
2022/04/20 07:15:32;;;;;;;3.88;2.83;;;8.20;74.70;;;;;;5030852;28;20044;-76
2022/04/20 07:17:57;;;;;;;3.78;2.42;;;8.40;74.00;;;;;;5027408;28;20033;-76
2022/04/20 07:20:23;;;;;;;3.47;2.60;;;8.50;73.00;;;;;;5025767;28;20528;-77
2022/04/20 07:22:50;;;;;;;4.15;2.53;;;8.60;72.50;;;;;;5025365;28;20021;-76
2022/04/20 07:25:17;;;;;;;4.00;2.50;;;8.70;71.50;;;;;;5026628;28;20014;-75
2022/04/20 07:27:45;;;;;;;4.85;2.75;;;8.70;70.80;;;;;;5044567;28;20405;-75
2022/04/20 07:30:11;;;;;;;3.63;2.28;;;8.90;70.60;;;;;;5024250;28;20022;-75
2022/04/20 07:32:37;;;;;;;4.63;2.78;;;8.90;70.90;;;;;;5027926;28;20440;-75
2022/04/20 07:35:03;;;;;;;3.75;2.60;;;9.00;70.10;;;;;;5025658;28;20485;-76
2022/04/20 07:37:28;;;;;;;4.60;2.60;;;9.10;69.70;;;;;;5031815;28;20021;-76
2022/04/20 07:39:54;;;;;;;4.60;2.80;;;9.10;69.80;;;;;;5026973;28;20099;-76
2022/04/20 07:42:24;;;;;;;4.22;2.55;;;9.10;69.30;;;;;;5027867;28;20033;-76
2022/04/20 07:44:49;;;;;;;3.17;2.47;;;9.10;69.10;;;;;;5033891;28;20018;-76
2022/04/20 07:47:15;;;;;;;5.10;2.53;;;9.10;69.40;;;;;;5027839;28;20025;-75
2022/04/20 07:52:26;;;;;;;;;;;9.20;69.40;;;;;;5026207;28;20044;-75
2022/04/20 07:54:51;;;;;;;6.15;2.63;;;9.30;69.30;;;;;;5028305;28;19909;-75
2022/04/20 07:57:17;;;;;;;4.00;2.20;;;9.40;69.00;;;;;;5023459;28;20485;-75
2022/04/20 07:59:44;;;;;;;3.70;2.72;;;9.50;68.20;;;;;;5030530;28;20524;-76
2022/04/20 08:02:12;;;;;;;3.85;2.53;;;9.60;67.70;;;;;;5026361;28;20029;-74
2022/04/20 08:04:38;;;;;;;6.57;2.50;;;9.60;68.00;;;;;;5030996;28;20034;-76
2022/04/20 08:07:04;;;;;;;4.20;2.65;;;9.70;66.40;;;;;;5022063;28;20022;-75
2022/04/20 08:09:30;;;;;;;3.67;2.55;;;9.80;67.10;;;;;;5025477;28;20492;-77
2022/04/20 08:11:55;;;;;;;5.28;2.88;;;9.90;66.80;;;;;;5020538;28;20030;-76
2022/04/20 08:14:21;;;;;;;3.70;2.22;;;10.00;67.10;;;;;;5026928;28;20037;-76
2022/04/20 08:16:48;;;;;;;5.07;2.40;;;10.00;66.30;;;;;;5022937;28;20485;-76
2022/04/20 08:19:14;;;;;;;4.68;3.10;;;10.10;66.00;;;;;;5025741;28;20108;-75
2022/04/20 08:21:39;;;;;;;4.72;2.90;;;10.20;65.70;;;;;;5021550;28;21126;-75
2022/04/20 08:24:06;;;;;;;3.65;2.90;;;10.20;65.50;;;;;;5027246;28;20028;-75
2022/04/20 08:26:32;;;;;;;4.78;2.30;;;10.20;65.30;;;;;;5021783;28;20355;-77
2022/04/20 08:28:57;;;;;;;4.28;2.58;;;10.20;65.40;;;;;;5025080;28;20018;-76
2022/04/20 08:31:24;;;;;;;3.72;2.75;;;10.30;65.00;;;;;;5026458;28;20030;-76
2022/04/20 08:33:50;;;;;;;4.95;2.65;;;10.30;64.50;;;;;;5026594;28;20079;-77
2022/04/20 08:36:16;;;;;;;3.30;2.50;;;10.40;64.70;;;;;;5025822;28;20489;-75
2022/04/20 08:38:44;;;;;;;5.75;2.50;;;10.40;64.90;;;;;;5026406;28;20029;-75
2022/04/20 08:41:12;;;;;;;8.70;2.90;;;10.50;64.80;;;;;;5026100;28;20061;-75
2022/04/20 08:43:41;;;;;;;3.30;2.78;;;10.60;64.40;;;;;;5003861;28;20041;-76
2022/04/20 08:46:09;;;;;;;4.22;2.95;;;10.70;64.50;;;;;;5025056;28;20040;-75
2022/04/20 08:48:35;;;;;;;3.78;2.92;;;10.80;64.30;;;;;;5026006;28;20040;-76
2022/04/20 08:51:05;;;;;;;6.00;2.78;;;10.90;64.00;;;;;;5021740;28;20029;-76
2022/04/20 08:53:30;;;;;;;4.72;3.10;;;11.10;63.30;;;;;;5026358;28;20057;-78
2022/04/20 08:58:45;;;;;;;2.90;2.28;;;11.00;63.10;;;;;;5020670;28;20040;-78
2022/04/20 09:01:13;;;;;;;6.45;2.75;;;11.00;63.80;;;;;;5036800;28;20397;-77
2022/04/20 09:03:39;;;;;;;4.82;2.97;;;11.10;63.40;;;;;;5021114;28;20029;-77
2022/04/20 09:06:07;;;;;;;5.57;2.90;;;11.10;63.60;;;;;;5028185;28;20041;-78
2022/04/20 09:08:34;;;;;;;4.07;2.70;;;11.10;63.80;;;;;;5024947;28;20047;-78
2022/04/20 09:11:00;;;;;;;6.15;2.80;;;11.20;64.10;;;;;;5027382;28;20037;-78
2022/04/20 09:13:35;;;;;;;6.00;3.80;;;11.20;63.40;;;;;;5024501;28;20423;-79
2022/04/20 09:16:12;;;;;;;5.57;2.85;;;11.30;63.40;;;;;;5020152;28;20029;-79
2022/04/20 09:18:39;;;;;;;4.60;2.80;;;11.20;62.40;;;;;;5027752;28;20112;-78
2022/04/20 09:21:12;;;;;;;5.25;2.80;;;11.30;61.90;;;;;;5020987;28;20022;-77
2022/04/20 09:23:38;;;;;;;5.78;3.40;;;11.30;61.30;;;;;;5024218;28;20430;-78
2022/04/20 09:26:15;;;;;;;4.85;2.72;;;11.20;61.80;;;;;;5022355;28;20026;-78
2022/04/20 09:29:01;;;;;;;5.25;2.75;;;11.30;61.00;;;;;;5024227;28;20021;-79
2022/04/20 09:31:44;;;;;;;5.10;2.63;;;11.30;60.80;;;;;;5031398;28;20037;-78
2022/04/20 09:34:12;;;;;;;4.72;3.20;;;11.30;60.50;;;;;;5030478;28;20025;-78
2022/04/20 09:36:45;;;;;;;5.80;3.63;;;11.30;60.20;;;;;;5027091;28;20120;-77
2022/04/20 09:39:12;;;;;;;4.30;3.10;;;11.20;60.50;;;;;;5034642;28;20132;-81
2022/04/20 09:41:58;;;;;;;5.40;3.25;;;11.20;60.80;;;;;;5029567;28;20033;-78
2022/04/20 09:44:26;;;;;;;4.13;3.15;;;11.20;61.90;;;;;;5022296;28;20077;-76
2022/04/20 09:50:01;;;;;;;3.80;2.80;;;11.20;61.70;;;;;;5023979;28;20037;-77
2022/04/20 09:52:44;;;;;;;5.25;2.97;;;11.30;61.40;;;;;;5020830;28;20124;-78
2022/04/20 09:55:13;;;;;;;3.57;2.80;;;11.30;61.70;;;;;;5027784;28;20056;-77
2022/04/20 09:57:39;;;;;;;5.32;3.30;;;11.20;62.30;;;;;;5017119;28;20309;-78
2022/04/20 10:00:12;;;;;;;5.20;3.40;;;11.30;62.80;;;;;;5020119;28;20061;-79
2022/04/20 10:02:58;;;;;;;6.20;3.03;;;11.30;62.30;;;;;;5024312;28;20533;-78
2022/04/20 10:05:24;;;;;;;5.18;3.15;;;11.40;62.40;;;;;;5023554;28;20275;-76
2022/04/20 10:07:51;;;;;;;6.45;3.10;;;11.40;62.70;;;;;;5037803;28;20040;-76
2022/04/20 10:10:17;;;;;;;5.00;2.78;;;11.50;62.70;;;;;;5019735;28;20113;-76
2022/04/20 10:12:44;;;;;;;5.97;3.17;;;11.50;61.50;;;;;;5015047;28;20119;-78
2022/04/20 10:17:56;;;;;;;6.43;3.35;;;11.50;61.40;;;;;;5017710;28;20060;-77
2022/04/20 10:20:26;;;;;;;8.85;3.28;;;11.50;60.60;;;;;;5020398;28;20032;-76
2022/04/20 10:22:57;;;;;;;5.60;2.63;;;11.70;60.70;;;;;;5024594;28;20021;-77
2022/04/20 10:25:22;;;;;;;4.15;2.70;;;11.70;59.80;;;;;;5021788;28;20071;-77
2022/04/20 10:28:07;;;;;;;4.45;2.50;;;11.60;59.00;;;;;;5020888;28;20041;-77
2022/04/20 10:30:52;;;;;;;4.20;2.50;;;11.70;58.30;;;;;;5023769;28;20039;-75
2022/04/20 10:33:23;;;;;;;4.28;2.35;;;11.60;57.60;;;;;;5020389;28;20503;-75
2022/04/20 10:36:02;;;;;;;5.32;2.60;;;11.70;57.80;;;;;;5023099;28;20030;-77
2022/04/20 10:38:31;;;;;;;3.65;2.78;;;11.90;57.80;;;;;;5019147;28;20037;-77
2022/04/20 10:41:05;;;;;;;5.75;3.00;;;12.00;56.90;;;;;;5023894;28;20394;-77
2022/04/20 10:43:34;;;;;;;6.88;2.70;;;12.00;56.20;;;;;;5026056;28;20032;-77
2022/04/20 10:46:14;;;;;;;3.60;2.50;;;12.00;56.10;;;;;;5031562;28;20033;-79
2022/04/20 10:48:58;;;;;;;4.30;2.90;;;12.00;56.70;;;;;;5027662;28;20025;-75
2022/04/20 10:51:30;;;;;;;;;;;12.00;56.40;;;;;;5032389;28;20048;-76
2022/04/20 10:54:26;;;;;;;5.65;2.65;;;12.10;55.40;;;;;;5032783;28;19916;-77
2022/04/20 10:57:05;;;;;;;4.70;2.50;;;12.10;55.00;;;;;;5028708;28;20034;-76
2022/04/20 10:59:32;;;;;;;4.32;2.65;;;12.10;55.40;;;;;;5028204;28;20539;-77
2022/04/20 11:02:03;;;;;;;3.92;2.80;;;12.20;55.00;;;;;;5030658;28;20648;-77
2022/04/20 11:04:48;;;;;;;5.75;3.03;;;12.20;55.30;;;;;;5031386;28;20052;-76
2022/04/20 11:07:26;;;;;;;3.47;2.30;;;12.30;55.10;;;;;;5031303;28;20025;-79
2022/04/20 11:10:05;;;;;;;4.82;2.50;;;12.30;53.80;;;;;;5030776;28;20092;-76
2022/04/20 11:18:44;;;;;;;4.05;3.08;;;12.40;54.10;;;;;;5037744;28;20044;-76
2022/04/20 11:21:16;;;;;;;5.22;3.05;;;12.40;54.40;;;;;;5025644;28;20028;-76
2022/04/20 11:24:03;;;;;;;4.63;3.00;;;12.40;55.80;;;;;;5025816;28;20128;-76
2022/04/20 11:26:34;;;;;;;3.50;2.70;;;12.50;56.20;;;;;;5031880;28;20025;-76
2022/04/20 11:29:16;;;;;;;6.30;2.78;;;12.40;53.60;;;;;;5032098;28;20021;-77
2022/04/20 11:31:48;;;;;;;4.47;3.28;;;12.40;53.20;;;;;;5033163;28;20033;-77
2022/04/20 11:34:16;;;;;;;6.95;3.15;;;12.40;52.80;;;;;;5032106;28;20025;-77
2022/04/20 11:36:47;;;;;;;3.38;2.83;;;12.40;53.90;;;;;;5040553;28;20057;-77
2022/04/20 11:39:15;;;;;;;6.47;3.00;;;12.40;55.10;;;;;;5030916;28;20025;-77
2022/04/20 11:41:49;;;;;;;5.57;3.17;;;12.40;55.70;;;;;;5028846;28;20061;-77
2022/04/20 11:44:36;;;;;;;6.68;2.88;;;12.50;54.70;;;;;;5023837;28;20472;-77
2022/04/20 11:47:04;;;;;;;7.90;2.90;;;12.60;54.60;;;;;;5025840;28;20037;-75
2022/04/20 11:49:41;;;;;;;6.53;2.88;;;12.60;54.60;;;;;;5034236;28;20075;-77
2022/04/20 11:52:14;;;;;;;4.35;3.03;;;12.70;52.70;;;;;;5028356;28;20267;-76
2022/04/20 11:54:41;;;;;;;5.97;2.85;;;12.70;53.20;;;;;;5024989;28;20026;-78
2022/04/20 11:57:08;;;;;;;4.93;2.47;;;12.80;53.20;;;;;;5026867;28;20079;-77
2022/04/20 11:59:40;;;;;;;5.72;3.28;;;12.90;52.90;;;;;;5030218;28;20034;-78
2022/04/20 12:02:06;;;;;;;5.95;2.55;;;13.00;53.20;;;;;;5028437;28;20037;-77
2022/04/20 12:04:32;;;;;;;5.05;3.58;;;13.10;52.80;;;;;;5019721;28;20029;-80
2022/04/20 12:06:59;;;;;;;4.72;3.20;;;13.10;51.40;;;;;;5034831;28;20429;-78
2022/04/20 12:09:32;;;;;;;5.80;2.95;;;13.10;52.70;;;;;;5024927;28;20065;-78
2022/04/20 12:12:05;;;;;;;5.07;3.07;;;13.10;53.00;;;;;;5019234;28;20984;-77
2022/04/20 12:14:35;;;;;;;6.22;2.90;;;13.00;53.10;;;;;;5026282;28;20116;-78
2022/04/20 12:17:22;;;;;;;5.20;2.67;;;13.00;52.60;;;;;;5029100;28;20051;-78
2022/04/20 12:19:50;;;;;;;5.43;3.38;;;13.10;52.70;;;;;;5024972;28;20508;-76
2022/04/20 12:22:21;;;;;;;5.60;3.35;;;13.10;52.80;;;;;;5024045;28;20083;-78
2022/04/20 12:24:48;;;;;;;5.05;2.97;;;13.10;52.60;;;;;;5023993;28;20022;-78
2022/04/20 12:27:19;;;;;;;6.03;3.08;;;13.00;52.50;;;;;;5024123;28;20567;-78
2022/04/20 12:29:56;;;;;;;4.53;2.80;;;13.10;52.30;;;;;;5033441;22;20129;-79
2022/04/20 12:32:26;;;;;;;5.65;2.80;;;13.00;51.40;;;;;;5029456;28;20048;-78
2022/04/20 12:35:01;;;;;;;4.47;2.88;;;13.10;51.70;;;;;;5027117;28;20075;-79
2022/04/20 12:37:29;;;;;;;6.93;2.72;;;13.10;51.50;;;;;;5028396;28;20028;-79
2022/04/20 12:39:55;;;;;;;4.47;2.20;;;13.20;50.00;;;;;;5004181;28;20025;-82
2022/04/20 12:42:23;;;;;;;8.13;2.50;;;13.30;50.60;;;;;;5025462;28;20129;-81
2022/04/20 12:44:54;;;;;;;3.85;2.30;;;13.30;50.50;;;;;;5021573;28;20030;-80
2022/04/20 12:47:20;;;;;;;4.05;2.53;;;13.40;50.00;;;;;;5011403;28;20494;-80
2022/04/20 12:49:51;;;;;;;4.35;2.80;;;13.40;49.90;;;;;;5006554;28;20040;-79
2022/04/20 12:52:19;;;;;;;3.60;2.63;;;13.50;49.80;;;;;;5008288;28;20026;-80
2022/04/20 12:54:54;;;;;;;6.50;2.42;;;13.30;49.40;;;;;;5021306;28;20025;-79
2022/04/20 13:03:03;;;;;;;3.60;2.20;;;13.40;50.30;;;;;;5023188;28;19999;-77
2022/04/20 13:05:35;;;;;;;3.63;2.67;;;13.40;49.80;;;;;;5024177;28;20112;-80
2022/04/20 13:08:01;;;;;;;4.88;2.30;;;13.50;49.60;;;;;;5018556;28;20477;-81
2022/04/20 13:10:29;;;;;;;3.58;2.40;;;13.50;49.90;;;;;;5019734;28;20037;-81
2022/04/20 13:12:56;;;;;;;5.82;2.65;;;13.50;50.20;;;;;;5018765;28;20047;-79
2022/04/20 13:15:24;;;;;;;5.03;2.50;;;13.50;50.60;;;;;;5020864;28;20029;-80
2022/04/20 13:17:51;;;;;;;5.65;2.40;;;13.50;50.80;;;;;;5019863;28;20034;-81
2022/04/20 13:20:18;;;;;;;5.25;2.25;;;13.40;51.10;;;;;;5020827;28;20053;-80
2022/04/20 13:22:47;;;;;;;3.95;2.40;;;13.40;51.30;;;;;;5018280;28;20107;-81
2022/04/20 13:27:57;;;;;;;6.43;2.78;;;13.40;53.20;;;;;;5020497;28;20135;-78
2022/04/20 13:30:24;;;;;;;4.28;2.58;;;13.50;52.80;;;;;;5023284;28;20509;-77
2022/04/20 13:32:55;;;;;;;4.75;2.65;;;13.50;52.90;;;;;;5004371;28;20025;-82
2022/04/20 13:35:21;;;;;;;4.85;2.83;;;13.50;53.10;;;;;;5019423;28;20025;-79
2022/04/20 13:37:47;;;;;;;3.88;2.38;;;13.50;53.00;;;;;;5018668;28;20017;-77
2022/04/20 13:40:13;;;;;;;5.68;2.80;;;13.50;50.80;;;;;;5002180;28;20083;-76
2022/04/20 13:42:39;;;;;;;3.50;2.20;;;13.70;49.80;;;;;;5021743;28;20048;-77
2022/04/20 13:45:06;;;;;;;3.78;2.50;;;13.70;49.20;;;;;;5002905;28;20474;-77